sensor_id;sensor_type;location;lat;lon;timestamp;P1;durP1;ratioP1;P2;durP2;ratioP2
1004;SDS011;491;53.480;10.174;2022-09-13T00:01:31;2.53;;;2.10;;
1004;SDS011;491;53.480;10.174;2022-09-13T00:03:56;2.70;;;1.97;;
1004;SDS011;491;53.480;10.174;2022-09-13T00:06:22;2.00;;;1.67;;
1004;SDS011;491;53.480;10.174;2022-09-13T00:08:48;2.50;;;1.90;;
1004;SDS011;491;53.480;10.174;2022-09-13T00:11:15;2.87;;;2.20;;
1004;SDS011;491;53.480;10.174;2022-09-13T00:13:45;2.70;;;1.33;;
1004;SDS011;491;53.480;10.174;2022-09-13T00:16:12;4.80;;;2.57;;
1004;SDS011;491;53.480;10.174;2022-09-13T00:18:39;5.10;;;1.53;;
1004;SDS011;491;53.480;10.174;2022-09-13T00:21:09;1.90;;;1.70;;
1004;SDS011;491;53.480;10.174;2022-09-13T00:23:37;3.60;;;2.40;;
1004;SDS011;491;53.480;10.174;2022-09-13T00:26:04;1.80;;;1.30;;
1004;SDS011;491;53.480;10.174;2022-09-13T00:28:34;3.20;;;1.70;;
1004;SDS011;491;53.480;10.174;2022-09-13T00:31:00;2.83;;;1.80;;
1004;SDS011;491;53.480;10.174;2022-09-13T00:33:27;1.70;;;1.20;;
1004;SDS011;491;53.480;10.174;2022-09-13T00:35:53;2.50;;;1.67;;
1004;SDS011;491;53.480;10.174;2022-09-13T00:38:18;2.73;;;1.50;;
1004;SDS011;491;53.480;10.174;2022-09-13T00:40:44;2.27;;;2.07;;
1004;SDS011;491;53.480;10.174;2022-09-13T00:43:19;2.13;;;1.50;;
1004;SDS011;491;53.480;10.174;2022-09-13T00:46:03;1.97;;;1.63;;
1004;SDS011;491;53.480;10.174;2022-09-13T00:48:29;1.83;;;1.13;;
1004;SDS011;491;53.480;10.174;2022-09-13T00:50:57;3.07;;;1.30;;
1004;SDS011;491;53.480;10.174;2022-09-13T00:53:30;2.20;;;1.83;;
1004;SDS011;491;53.480;10.174;2022-09-13T00:55:59;2.90;;;1.30;;
1004;SDS011;491;53.480;10.174;2022-09-13T00:58:30;2.40;;;2.20;;
1004;SDS011;491;53.480;10.174;2022-09-13T01:01:15;3.90;;;2.03;;
1004;SDS011;491;53.480;10.174;2022-09-13T01:03:42;2.70;;;1.67;;
1004;SDS011;491;53.480;10.174;2022-09-13T01:06:14;2.93;;;2.40;;
1004;SDS011;491;53.480;10.174;2022-09-13T01:08:45;2.20;;;1.93;;
1004;SDS011;491;53.480;10.174;2022-09-13T01:11:36;3.10;;;2.40;;
1004;SDS011;491;53.480;10.174;2022-09-13T01:14:14;2.60;;;1.90;;
1004;SDS011;491;53.480;10.174;2022-09-13T01:16:41;2.07;;;1.87;;
1004;SDS011;491;53.480;10.174;2022-09-13T01:19:07;2.30;;;1.77;;
1004;SDS011;491;53.480;10.174;2022-09-13T01:30:11;3.80;;;2.43;;
1004;SDS011;491;53.480;10.174;2022-09-13T01:35:41;3.80;;;2.30;;
1004;SDS011;491;53.480;10.174;2022-09-13T01:38:23;3.20;;;2.40;;
1004;SDS011;491;53.480;10.174;2022-09-13T01:44:36;4.90;;;2.13;;
1004;SDS011;491;53.480;10.174;2022-09-13T01:47:33;2.33;;;1.77;;
1004;SDS011;491;53.480;10.174;2022-09-13T01:50:23;5.73;;;1.97;;
1004;SDS011;491;53.480;10.174;2022-09-13T01:52:56;5.57;;;3.30;;
1004;SDS011;491;53.480;10.174;2022-09-13T02:00:26;3.47;;;2.60;;
1004;SDS011;491;53.480;10.174;2022-09-13T02:02:57;3.03;;;2.60;;
1004;SDS011;491;53.480;10.174;2022-09-13T02:05:37;4.37;;;2.40;;
1004;SDS011;491;53.480;10.174;2022-09-13T02:08:10;3.20;;;2.70;;
1004;SDS011;491;53.480;10.174;2022-09-13T02:10:44;3.03;;;2.47;;
1004;SDS011;491;53.480;10.174;2022-09-13T02:13:14;4.63;;;2.83;;
1004;SDS011;491;53.480;10.174;2022-09-13T02:15:47;6.83;;;3.57;;
1004;SDS011;491;53.480;10.174;2022-09-13T02:18:23;4.10;;;3.00;;
1004;SDS011;491;53.480;10.174;2022-09-13T02:20:53;3.63;;;2.47;;
1004;SDS011;491;53.480;10.174;2022-09-13T02:23:28;4.03;;;3.00;;
1004;SDS011;491;53.480;10.174;2022-09-13T02:26:00;3.77;;;2.87;;
1004;SDS011;491;53.480;10.174;2022-09-13T02:28:31;4.73;;;3.33;;
1004;SDS011;491;53.480;10.174;2022-09-13T02:31:01;3.30;;;2.73;;
1004;SDS011;491;53.480;10.174;2022-09-13T02:33:35;3.90;;;2.07;;
1004;SDS011;491;53.480;10.174;2022-09-13T02:36:12;3.50;;;3.07;;
1004;SDS011;491;53.480;10.174;2022-09-13T02:38:45;3.57;;;2.53;;
1004;SDS011;491;53.480;10.174;2022-09-13T02:46:49;4.17;;;2.90;;
1004;SDS011;491;53.480;10.174;2022-09-13T02:49:47;4.23;;;3.30;;
1004;SDS011;491;53.480;10.174;2022-09-13T02:52:26;3.53;;;3.10;;
1004;SDS011;491;53.480;10.174;2022-09-13T02:55:03;5.13;;;3.20;;
1004;SDS011;491;53.480;10.174;2022-09-13T03:00:11;3.10;;;2.30;;
1004;SDS011;491;53.480;10.174;2022-09-13T03:02:36;5.27;;;3.13;;
1004;SDS011;491;53.480;10.174;2022-09-13T03:05:05;3.77;;;3.10;;
1004;SDS011;491;53.480;10.174;2022-09-13T03:07:31;3.40;;;2.13;;
1004;SDS011;491;53.480;10.174;2022-09-13T03:09:58;4.20;;;2.87;;
1004;SDS011;491;53.480;10.174;2022-09-13T03:15:42;4.73;;;3.53;;
1004;SDS011;491;53.480;10.174;2022-09-13T03:18:39;4.40;;;2.63;;
1004;SDS011;491;53.480;10.174;2022-09-13T03:21:21;5.10;;;2.87;;
1004;SDS011;491;53.480;10.174;2022-09-13T03:24:12;4.67;;;3.37;;
1004;SDS011;491;53.480;10.174;2022-09-13T03:30:12;5.10;;;3.10;;
1004;SDS011;491;53.480;10.174;2022-09-13T03:32:41;4.43;;;2.30;;
1004;SDS011;491;53.480;10.174;2022-09-13T03:37:56;3.77;;;2.90;;
1004;SDS011;491;53.480;10.174;2022-09-13T03:43:21;5.53;;;3.93;;
1004;SDS011;491;53.480;10.174;2022-09-13T03:45:55;7.07;;;3.97;;
1004;SDS011;491;53.480;10.174;2022-09-13T03:48:22;4.40;;;3.50;;
1004;SDS011;491;53.480;10.174;2022-09-13T03:50:49;5.30;;;3.63;;
1004;SDS011;491;53.480;10.174;2022-09-13T03:53:25;4.60;;;3.40;;
1004;SDS011;491;53.480;10.174;2022-09-13T03:55:53;7.27;;;4.80;;
1004;SDS011;491;53.480;10.174;2022-09-13T03:58:19;7.47;;;4.30;;
1004;SDS011;491;53.480;10.174;2022-09-13T04:00:46;4.80;;;3.70;;
1004;SDS011;491;53.480;10.174;2022-09-13T04:03:12;5.47;;;3.53;;
1004;SDS011;491;53.480;10.174;2022-09-13T04:05:38;4.93;;;4.07;;
1004;SDS011;491;53.480;10.174;2022-09-13T04:08:04;5.97;;;3.60;;
1004;SDS011;491;53.480;10.174;2022-09-13T04:10:31;5.60;;;4.40;;
1004;SDS011;491;53.480;10.174;2022-09-13T04:12:59;7.20;;;3.90;;
1004;SDS011;491;53.480;10.174;2022-09-13T04:15:25;8.03;;;4.70;;
1004;SDS011;491;53.480;10.174;2022-09-13T04:17:51;5.30;;;4.77;;
1004;SDS011;491;53.480;10.174;2022-09-13T04:20:17;5.77;;;4.20;;
1004;SDS011;491;53.480;10.174;2022-09-13T04:22:49;6.57;;;4.27;;
1004;SDS011;491;53.480;10.174;2022-09-13T04:25:18;6.50;;;4.40;;
1004;SDS011;491;53.480;10.174;2022-09-13T04:27:45;6.70;;;4.50;;
1004;SDS011;491;53.480;10.174;2022-09-13T04:30:11;6.40;;;4.50;;
1004;SDS011;491;53.480;10.174;2022-09-13T04:32:36;6.80;;;3.70;;
1004;SDS011;491;53.480;10.174;2022-09-13T04:35:02;6.87;;;3.33;;
1004;SDS011;491;53.480;10.174;2022-09-13T04:37:28;8.40;;;5.70;;
1004;SDS011;491;53.480;10.174;2022-09-13T04:39:53;5.40;;;4.40;;
1004;SDS011;491;53.480;10.174;2022-09-13T04:42:19;4.57;;;3.90;;
1004;SDS011;491;53.480;10.174;2022-09-13T04:44:44;5.87;;;5.23;;
1004;SDS011;491;53.480;10.174;2022-09-13T04:47:10;8.33;;;5.87;;
1004;SDS011;491;53.480;10.174;2022-09-13T04:49:35;6.67;;;4.40;;
1004;SDS011;491;53.480;10.174;2022-09-13T04:52:01;7.60;;;4.70;;
1004;SDS011;491;53.480;10.174;2022-09-13T04:54:27;6.37;;;4.23;;
1004;SDS011;491;53.480;10.174;2022-09-13T04:56:53;6.80;;;5.80;;
1004;SDS011;491;53.480;10.174;2022-09-13T04:59:19;7.57;;;5.17;;
1004;SDS011;491;53.480;10.174;2022-09-13T05:01:44;9.93;;;6.07;;
1004;SDS011;491;53.480;10.174;2022-09-13T05:04:10;8.90;;;6.47;;
1004;SDS011;491;53.480;10.174;2022-09-13T05:06:37;6.10;;;5.13;;
1004;SDS011;491;53.480;10.174;2022-09-13T05:09:03;7.77;;;6.73;;
1004;SDS011;491;53.480;10.174;2022-09-13T05:11:29;6.90;;;6.03;;
1004;SDS011;491;53.480;10.174;2022-09-13T05:13:56;9.47;;;6.53;;
1004;SDS011;491;53.480;10.174;2022-09-13T05:16:23;8.70;;;6.40;;
1004;SDS011;491;53.480;10.174;2022-09-13T05:18:51;6.93;;;5.70;;
1004;SDS011;491;53.480;10.174;2022-09-13T05:21:20;8.73;;;6.13;;
1004;SDS011;491;53.480;10.174;2022-09-13T05:23:49;7.80;;;5.50;;
1004;SDS011;491;53.480;10.174;2022-09-13T05:26:16;8.70;;;6.30;;
1004;SDS011;491;53.480;10.174;2022-09-13T05:28:41;7.90;;;6.23;;
1004;SDS011;491;53.480;10.174;2022-09-13T05:31:20;10.60;;;6.23;;
1004;SDS011;491;53.480;10.174;2022-09-13T05:33:57;10.00;;;6.80;;
1004;SDS011;491;53.480;10.174;2022-09-13T05:36:27;10.20;;;5.87;;
1004;SDS011;491;53.480;10.174;2022-09-13T05:38:53;10.20;;;7.17;;
1004;SDS011;491;53.480;10.174;2022-09-13T05:41:19;8.30;;;6.03;;
1004;SDS011;491;53.480;10.174;2022-09-13T05:43:45;9.90;;;7.17;;
1004;SDS011;491;53.480;10.174;2022-09-13T05:46:12;10.27;;;6.10;;
1004;SDS011;491;53.480;10.174;2022-09-13T05:48:39;8.47;;;6.13;;
1004;SDS011;491;53.480;10.174;2022-09-13T05:51:06;9.87;;;6.80;;
1004;SDS011;491;53.480;10.174;2022-09-13T05:53:48;8.07;;;6.17;;
1004;SDS011;491;53.480;10.174;2022-09-13T05:56:19;10.60;;;7.70;;
1004;SDS011;491;53.480;10.174;2022-09-13T05:58:50;8.80;;;7.27;;
1004;SDS011;491;53.480;10.174;2022-09-13T06:01:17;12.23;;;7.83;;
1004;SDS011;491;53.480;10.174;2022-09-13T06:03:48;8.67;;;6.67;;
1004;SDS011;491;53.480;10.174;2022-09-13T06:06:15;11.43;;;7.47;;
1004;SDS011;491;53.480;10.174;2022-09-13T06:08:41;17.27;;;8.40;;
1004;SDS011;491;53.480;10.174;2022-09-13T06:11:07;11.97;;;7.53;;
1004;SDS011;491;53.480;10.174;2022-09-13T06:13:35;16.63;;;8.90;;
1004;SDS011;491;53.480;10.174;2022-09-13T06:16:01;12.90;;;9.23;;
1004;SDS011;491;53.480;10.174;2022-09-13T06:18:28;13.10;;;9.10;;
1004;SDS011;491;53.480;10.174;2022-09-13T06:20:57;12.30;;;8.43;;
1004;SDS011;491;53.480;10.174;2022-09-13T06:23:25;14.03;;;9.20;;
1004;SDS011;491;53.480;10.174;2022-09-13T06:26:01;12.73;;;9.70;;
1004;SDS011;491;53.480;10.174;2022-09-13T06:28:31;13.03;;;9.47;;
1004;SDS011;491;53.480;10.174;2022-09-13T06:31:00;11.60;;;8.10;;
1004;SDS011;491;53.480;10.174;2022-09-13T06:33:26;11.17;;;7.97;;
1004;SDS011;491;53.480;10.174;2022-09-13T06:35:52;13.83;;;9.20;;
1004;SDS011;491;53.480;10.174;2022-09-13T06:38:17;13.03;;;8.93;;
1004;SDS011;491;53.480;10.174;2022-09-13T06:40:42;11.87;;;8.40;;
1004;SDS011;491;53.480;10.174;2022-09-13T06:43:08;13.17;;;8.87;;
1004;SDS011;491;53.480;10.174;2022-09-13T06:45:35;15.20;;;9.43;;
1004;SDS011;491;53.480;10.174;2022-09-13T06:48:01;11.10;;;9.00;;
1004;SDS011;491;53.480;10.174;2022-09-13T06:50:26;14.57;;;9.10;;
1004;SDS011;491;53.480;10.174;2022-09-13T06:52:52;10.93;;;9.03;;
1004;SDS011;491;53.480;10.174;2022-09-13T06:55:17;13.17;;;9.10;;
1004;SDS011;491;53.480;10.174;2022-09-13T06:57:44;12.40;;;9.30;;
1004;SDS011;491;53.480;10.174;2022-09-13T07:00:09;10.73;;;8.07;;
1004;SDS011;491;53.480;10.174;2022-09-13T07:02:35;12.60;;;9.00;;
1004;SDS011;491;53.480;10.174;2022-09-13T07:05:01;10.93;;;7.83;;
1004;SDS011;491;53.480;10.174;2022-09-13T07:07:26;9.67;;;8.10;;
1004;SDS011;491;53.480;10.174;2022-09-13T07:09:52;10.17;;;8.37;;
1004;SDS011;491;53.480;10.174;2022-09-13T07:12:17;11.13;;;7.30;;
1004;SDS011;491;53.480;10.174;2022-09-13T07:14:43;9.40;;;7.10;;
1004;SDS011;491;53.480;10.174;2022-09-13T07:17:08;11.80;;;7.20;;
1004;SDS011;491;53.480;10.174;2022-09-13T07:19:33;8.90;;;6.43;;
1004;SDS011;491;53.480;10.174;2022-09-13T07:21:59;7.03;;;5.20;;
1004;SDS011;491;53.480;10.174;2022-09-13T07:24:24;7.60;;;5.93;;
1004;SDS011;491;53.480;10.174;2022-09-13T07:26:51;9.80;;;6.70;;
1004;SDS011;491;53.480;10.174;2022-09-13T07:29:17;9.47;;;6.80;;
1004;SDS011;491;53.480;10.174;2022-09-13T07:31:47;9.27;;;6.73;;
1004;SDS011;491;53.480;10.174;2022-09-13T07:34:15;9.03;;;6.50;;
1004;SDS011;491;53.480;10.174;2022-09-13T07:36:46;8.60;;;5.70;;
1004;SDS011;491;53.480;10.174;2022-09-13T07:39:12;8.93;;;5.90;;
1004;SDS011;491;53.480;10.174;2022-09-13T07:41:39;6.90;;;4.93;;
1004;SDS011;491;53.480;10.174;2022-09-13T07:44:05;7.80;;;5.50;;
1004;SDS011;491;53.480;10.174;2022-09-13T07:46:32;8.70;;;5.50;;
1004;SDS011;491;53.480;10.174;2022-09-13T07:49:00;7.07;;;5.17;;
1004;SDS011;491;53.480;10.174;2022-09-13T07:51:27;8.17;;;4.93;;
1004;SDS011;491;53.480;10.174;2022-09-13T07:53:55;6.27;;;4.93;;
1004;SDS011;491;53.480;10.174;2022-09-13T07:56:23;6.00;;;5.03;;
1004;SDS011;491;53.480;10.174;2022-09-13T07:58:53;6.03;;;3.50;;
1004;SDS011;491;53.480;10.174;2022-09-13T08:03:58;7.93;;;4.13;;
1004;SDS011;491;53.480;10.174;2022-09-13T08:06:26;6.33;;;3.90;;
1004;SDS011;491;53.480;10.174;2022-09-13T08:08:56;7.07;;;3.40;;
1004;SDS011;491;53.480;10.174;2022-09-13T08:11:28;6.37;;;3.27;;
1004;SDS011;491;53.480;10.174;2022-09-13T08:13:56;6.00;;;2.93;;
1004;SDS011;491;53.480;10.174;2022-09-13T08:16:22;5.40;;;4.70;;
1004;SDS011;491;53.480;10.174;2022-09-13T08:18:54;6.17;;;4.23;;
1004;SDS011;491;53.480;10.174;2022-09-13T08:21:21;6.60;;;3.63;;
1004;SDS011;491;53.480;10.174;2022-09-13T08:23:48;5.40;;;3.57;;
1004;SDS011;491;53.480;10.174;2022-09-13T08:26:15;4.67;;;2.83;;
1004;SDS011;491;53.480;10.174;2022-09-13T08:28:40;5.43;;;3.80;;
1004;SDS011;491;53.480;10.174;2022-09-13T08:31:10;6.73;;;4.20;;
1004;SDS011;491;53.480;10.174;2022-09-13T08:33:46;5.47;;;3.63;;
1004;SDS011;491;53.480;10.174;2022-09-13T08:36:15;7.90;;;2.93;;
1004;SDS011;491;53.480;10.174;2022-09-13T08:38:47;5.10;;;3.67;;
1004;SDS011;491;53.480;10.174;2022-09-13T08:43:54;5.33;;;2.70;;
1004;SDS011;491;53.480;10.174;2022-09-13T08:46:31;5.70;;;2.63;;
1004;SDS011;491;53.480;10.174;2022-09-13T08:49:03;5.93;;;2.10;;
1004;SDS011;491;53.480;10.174;2022-09-13T08:51:43;5.90;;;2.30;;
1004;SDS011;491;53.480;10.174;2022-09-13T08:54:12;4.33;;;1.40;;
1004;SDS011;491;53.480;10.174;2022-09-13T08:56:43;2.30;;;1.13;;
1004;SDS011;491;53.480;10.174;2022-09-13T09:02:33;3.40;;;0.87;;
1004;SDS011;491;53.480;10.174;2022-09-13T09:07:39;2.83;;;1.07;;
1004;SDS011;491;53.480;10.174;2022-09-13T09:10:16;2.57;;;1.10;;
1004;SDS011;491;53.480;10.174;2022-09-13T09:15:30;3.07;;;0.80;;
1004;SDS011;491;53.480;10.174;2022-09-13T09:18:05;1.60;;;0.50;;
1004;SDS011;491;53.480;10.174;2022-09-13T09:20:41;1.53;;;0.50;;
1004;SDS011;491;53.480;10.174;2022-09-13T09:23:21;5.30;;;0.93;;
1004;SDS011;491;53.480;10.174;2022-09-13T09:25:53;1.90;;;0.60;;
1004;SDS011;491;53.480;10.174;2022-09-13T09:28:38;2.33;;;0.63;;
1004;SDS011;491;53.480;10.174;2022-09-13T09:31:07;1.80;;;0.50;;
1004;SDS011;491;53.480;10.174;2022-09-13T09:33:45;3.80;;;0.90;;
1004;SDS011;491;53.480;10.174;2022-09-13T09:36:38;1.57;;;0.70;;
1004;SDS011;491;53.480;10.174;2022-09-13T09:39:22;2.33;;;0.50;;
1004;SDS011;491;53.480;10.174;2022-09-13T09:41:53;1.47;;;0.33;;
1004;SDS011;491;53.480;10.174;2022-09-13T09:44:22;0.97;;;0.20;;
1004;SDS011;491;53.480;10.174;2022-09-13T09:47:05;3.60;;;1.07;;
1004;SDS011;491;53.480;10.174;2022-09-13T09:49:49;1.13;;;0.30;;
1004;SDS011;491;53.480;10.174;2022-09-13T09:52:42;4.37;;;0.50;;
1004;SDS011;491;53.480;10.174;2022-09-13T09:58:03;1.47;;;0.20;;
1004;SDS011;491;53.480;10.174;2022-09-13T10:00:31;1.17;;;0.30;;
1004;SDS011;491;53.480;10.174;2022-09-13T10:03:17;2.80;;;0.33;;
1004;SDS011;491;53.480;10.174;2022-09-13T10:05:45;2.77;;;0.40;;
1004;SDS011;491;53.480;10.174;2022-09-13T10:08:25;4.83;;;0.30;;
1004;SDS011;491;53.480;10.174;2022-09-13T10:10:55;1.20;;;0.20;;
1004;SDS011;491;53.480;10.174;2022-09-13T10:13:23;3.80;;;0.20;;
1004;SDS011;491;53.480;10.174;2022-09-13T10:15:56;1.80;;;0.40;;
1004;SDS011;491;53.480;10.174;2022-09-13T10:18:22;2.70;;;0.50;;
1004;SDS011;491;53.480;10.174;2022-09-13T10:23:50;2.67;;;0.30;;
1004;SDS011;491;53.480;10.174;2022-09-13T10:26:25;2.03;;;0.20;;
1004;SDS011;491;53.480;10.174;2022-09-13T10:31:21;2.53;;;0.50;;
1004;SDS011;491;53.480;10.174;2022-09-13T10:34:10;0.83;;;0.20;;
1004;SDS011;491;53.480;10.174;2022-09-13T10:36:40;1.77;;;0.20;;
1004;SDS011;491;53.480;10.174;2022-09-13T10:39:14;3.90;;;0.20;;
1004;SDS011;491;53.480;10.174;2022-09-13T10:42:03;1.33;;;0.20;;
1004;SDS011;491;53.480;10.174;2022-09-13T10:47:10;1.37;;;0.20;;
1004;SDS011;491;53.480;10.174;2022-09-13T10:49:52;1.67;;;0.40;;
1004;SDS011;491;53.480;10.174;2022-09-13T10:52:34;1.23;;;0.20;;
1004;SDS011;491;53.480;10.174;2022-09-13T10:57:44;3.40;;;0.20;;
1004;SDS011;491;53.480;10.174;2022-09-13T11:00:12;1.80;;;0.40;;
1004;SDS011;491;53.480;10.174;2022-09-13T11:02:51;0.90;;;0.20;;
1004;SDS011;491;53.480;10.174;2022-09-13T11:05:29;1.67;;;0.20;;
1004;SDS011;491;53.480;10.174;2022-09-13T11:08:06;1.00;;;0.30;;
1004;SDS011;491;53.480;10.174;2022-09-13T11:10:44;0.97;;;0.20;;
1004;SDS011;491;53.480;10.174;2022-09-13T11:13:42;2.27;;;0.30;;
1004;SDS011;491;53.480;10.174;2022-09-13T11:19:37;1.10;;;0.20;;
1004;SDS011;491;53.480;10.174;2022-09-13T11:22:25;2.00;;;0.40;;
1004;SDS011;491;53.480;10.174;2022-09-13T11:25:13;1.63;;;0.20;;
1004;SDS011;491;53.480;10.174;2022-09-13T11:27:49;1.20;;;0.30;;
1004;SDS011;491;53.480;10.174;2022-09-13T11:30:25;1.50;;;0.30;;
1004;SDS011;491;53.480;10.174;2022-09-13T11:35:46;1.33;;;0.30;;
1004;SDS011;491;53.480;10.174;2022-09-13T11:38:25;2.57;;;0.20;;
1004;SDS011;491;53.480;10.174;2022-09-13T11:44:02;2.80;;;0.20;;
1004;SDS011;491;53.480;10.174;2022-09-13T11:47:03;2.10;;;0.20;;
1004;SDS011;491;53.480;10.174;2022-09-13T11:55:15;1.07;;;0.27;;
1004;SDS011;491;53.480;10.174;2022-09-13T11:57:45;3.00;;;0.30;;
1004;SDS011;491;53.480;10.174;2022-09-13T12:00:22;1.83;;;0.40;;
1004;SDS011;491;53.480;10.174;2022-09-13T12:03:10;3.43;;;0.40;;
1004;SDS011;491;53.480;10.174;2022-09-13T12:05:57;2.23;;;0.20;;
1004;SDS011;491;53.480;10.174;2022-09-13T12:08:30;1.67;;;0.20;;
1004;SDS011;491;53.480;10.174;2022-09-13T12:11:04;0.87;;;0.40;;
1004;SDS011;491;53.480;10.174;2022-09-13T12:13:36;2.63;;;0.30;;
1004;SDS011;491;53.480;10.174;2022-09-13T12:16:11;2.17;;;0.20;;
1004;SDS011;491;53.480;10.174;2022-09-13T12:21:54;1.10;;;0.20;;
1004;SDS011;491;53.480;10.174;2022-09-13T12:24:28;2.20;;;0.20;;
1004;SDS011;491;53.480;10.174;2022-09-13T12:27:11;2.17;;;0.27;;
1004;SDS011;491;53.480;10.174;2022-09-13T12:29:53;3.87;;;0.20;;
1004;SDS011;491;53.480;10.174;2022-09-13T12:32:21;2.20;;;0.40;;
1004;SDS011;491;53.480;10.174;2022-09-13T12:34:55;3.90;;;0.30;;
1004;SDS011;491;53.480;10.174;2022-09-13T12:45:42;3.93;;;0.43;;
1004;SDS011;491;53.480;10.174;2022-09-13T12:49:16;1.37;;;0.30;;
1004;SDS011;491;53.480;10.174;2022-09-13T13:02:21;1.33;;;0.20;;
1004;SDS011;491;53.480;10.174;2022-09-13T13:05:02;2.33;;;0.40;;
1004;SDS011;491;53.480;10.174;2022-09-13T13:07:29;3.50;;;0.30;;
1004;SDS011;491;53.480;10.174;2022-09-13T13:09:59;1.07;;;0.20;;
1004;SDS011;491;53.480;10.174;2022-09-13T13:12:37;3.20;;;0.57;;
1004;SDS011;491;53.480;10.174;2022-09-13T13:17:51;1.87;;;0.40;;
1004;SDS011;491;53.480;10.174;2022-09-13T13:23:16;3.10;;;0.30;;
1004;SDS011;491;53.480;10.174;2022-09-13T13:25:55;1.10;;;0.57;;
1004;SDS011;491;53.480;10.174;2022-09-13T13:33:57;1.87;;;0.43;;
1004;SDS011;491;53.480;10.174;2022-09-13T13:36:28;6.20;;;0.73;;
1004;SDS011;491;53.480;10.174;2022-09-13T13:38:59;4.63;;;0.50;;
1004;SDS011;491;53.480;10.174;2022-09-13T13:43:58;4.47;;;0.50;;
1004;SDS011;491;53.480;10.174;2022-09-13T13:46:28;2.43;;;0.40;;
1004;SDS011;491;53.480;10.174;2022-09-13T13:48:55;2.33;;;0.67;;
1004;SDS011;491;53.480;10.174;2022-09-13T13:51:41;0.70;;;0.20;;
1004;SDS011;491;53.480;10.174;2022-09-13T13:54:27;1.73;;;0.20;;
1004;SDS011;491;53.480;10.174;2022-09-13T13:56:55;2.50;;;0.43;;
1004;SDS011;491;53.480;10.174;2022-09-13T13:59:23;2.73;;;0.30;;
1004;SDS011;491;53.480;10.174;2022-09-13T14:01:53;0.60;;;0.30;;
1004;SDS011;491;53.480;10.174;2022-09-13T14:10:37;1.30;;;0.30;;
1004;SDS011;491;53.480;10.174;2022-09-13T14:13:35;5.20;;;0.60;;
1004;SDS011;491;53.480;10.174;2022-09-13T14:16:27;4.43;;;0.40;;
1004;SDS011;491;53.480;10.174;2022-09-13T14:24:39;1.00;;;0.27;;
1004;SDS011;491;53.480;10.174;2022-09-13T14:27:09;3.17;;;0.60;;
1004;SDS011;491;53.480;10.174;2022-09-13T14:29:59;1.17;;;0.30;;
1004;SDS011;491;53.480;10.174;2022-09-13T14:32:29;4.00;;;0.60;;
1004;SDS011;491;53.480;10.174;2022-09-13T14:35:04;1.67;;;0.20;;
1004;SDS011;491;53.480;10.174;2022-09-13T14:37:32;3.13;;;0.30;;
1004;SDS011;491;53.480;10.174;2022-09-13T14:42:42;1.70;;;0.30;;
1004;SDS011;491;53.480;10.174;2022-09-13T14:45:13;2.63;;;0.20;;
1004;SDS011;491;53.480;10.174;2022-09-13T14:50:45;6.03;;;0.20;;
1004;SDS011;491;53.480;10.174;2022-09-13T14:53:17;1.93;;;0.20;;
1004;SDS011;491;53.480;10.174;2022-09-13T14:55:53;1.67;;;0.57;;
1004;SDS011;491;53.480;10.174;2022-09-13T14:58:28;3.63;;;0.20;;
1004;SDS011;491;53.480;10.174;2022-09-13T15:01:08;3.93;;;0.43;;
1004;SDS011;491;53.480;10.174;2022-09-13T15:03:39;2.43;;;0.20;;
1004;SDS011;491;53.480;10.174;2022-09-13T15:06:18;2.43;;;0.60;;
1004;SDS011;491;53.480;10.174;2022-09-13T15:08:59;1.63;;;0.23;;
1004;SDS011;491;53.480;10.174;2022-09-13T15:11:38;3.80;;;0.40;;
1004;SDS011;491;53.480;10.174;2022-09-13T15:19:41;1.70;;;0.30;;
1004;SDS011;491;53.480;10.174;2022-09-13T15:24:45;3.13;;;0.93;;
1004;SDS011;491;53.480;10.174;2022-09-13T15:27:16;2.27;;;0.20;;
1004;SDS011;491;53.480;10.174;2022-09-13T15:29:56;5.57;;;1.33;;
1004;SDS011;491;53.480;10.174;2022-09-13T15:32:39;3.23;;;0.20;;
1004;SDS011;491;53.480;10.174;2022-09-13T15:38:06;2.10;;;0.30;;
1004;SDS011;491;53.480;10.174;2022-09-13T15:40:41;0.90;;;0.20;;
1004;SDS011;491;53.480;10.174;2022-09-13T15:43:09;3.00;;;0.30;;
1004;SDS011;491;53.480;10.174;2022-09-13T15:45:34;1.27;;;0.20;;
1004;SDS011;491;53.480;10.174;2022-09-13T15:48:00;7.10;;;0.67;;
1004;SDS011;491;53.480;10.174;2022-09-13T15:50:26;2.83;;;0.40;;
1004;SDS011;491;53.480;10.174;2022-09-13T15:52:55;2.80;;;0.40;;
1004;SDS011;491;53.480;10.174;2022-09-13T15:55:21;4.40;;;0.30;;
1004;SDS011;491;53.480;10.174;2022-09-13T15:57:48;2.50;;;0.80;;
1004;SDS011;491;53.480;10.174;2022-09-13T16:00:24;4.33;;;0.43;;
1004;SDS011;491;53.480;10.174;2022-09-13T16:02:52;4.20;;;0.47;;
1004;SDS011;491;53.480;10.174;2022-09-13T16:05:18;3.57;;;0.63;;
1004;SDS011;491;53.480;10.174;2022-09-13T16:07:46;1.90;;;0.23;;
1004;SDS011;491;53.480;10.174;2022-09-13T16:10:13;2.93;;;0.20;;
1004;SDS011;491;53.480;10.174;2022-09-13T16:12:44;4.73;;;0.50;;
1004;SDS011;491;53.480;10.174;2022-09-13T16:15:12;3.83;;;0.20;;
1004;SDS011;491;53.480;10.174;2022-09-13T16:17:41;3.77;;;0.20;;
1004;SDS011;491;53.480;10.174;2022-09-13T16:20:09;2.77;;;0.53;;
1004;SDS011;491;53.480;10.174;2022-09-13T16:22:37;1.90;;;0.20;;
1004;SDS011;491;53.480;10.174;2022-09-13T16:25:02;4.10;;;0.50;;
1004;SDS011;491;53.480;10.174;2022-09-13T16:27:28;4.17;;;0.57;;
1004;SDS011;491;53.480;10.174;2022-09-13T16:29:54;3.57;;;0.37;;
1004;SDS011;491;53.480;10.174;2022-09-13T16:32:19;1.10;;;0.30;;
1004;SDS011;491;53.480;10.174;2022-09-13T16:34:45;1.30;;;0.47;;
1004;SDS011;491;53.480;10.174;2022-09-13T16:37:14;4.00;;;0.30;;
1004;SDS011;491;53.480;10.174;2022-09-13T16:39:41;5.37;;;0.20;;
1004;SDS011;491;53.480;10.174;2022-09-13T16:42:08;4.70;;;0.50;;
1004;SDS011;491;53.480;10.174;2022-09-13T16:44:33;1.90;;;0.40;;
1004;SDS011;491;53.480;10.174;2022-09-13T16:46:59;1.53;;;0.20;;
1004;SDS011;491;53.480;10.174;2022-09-13T16:49:27;1.43;;;0.20;;
1004;SDS011;491;53.480;10.174;2022-09-13T16:51:53;3.13;;;0.20;;
1004;SDS011;491;53.480;10.174;2022-09-13T16:54:18;3.00;;;1.10;;
1004;SDS011;491;53.480;10.174;2022-09-13T16:56:43;2.30;;;0.20;;
1004;SDS011;491;53.480;10.174;2022-09-13T16:59:09;2.57;;;0.30;;
1004;SDS011;491;53.480;10.174;2022-09-13T17:01:34;4.20;;;0.50;;
1004;SDS011;491;53.480;10.174;2022-09-13T17:04:00;4.03;;;0.27;;
1004;SDS011;491;53.480;10.174;2022-09-13T17:06:26;2.00;;;0.20;;
1004;SDS011;491;53.480;10.174;2022-09-13T17:08:56;2.03;;;0.20;;
1004;SDS011;491;53.480;10.174;2022-09-13T17:11:25;0.50;;;0.20;;
1004;SDS011;491;53.480;10.174;2022-09-13T17:13:53;1.93;;;0.20;;
1004;SDS011;491;53.480;10.174;2022-09-13T17:16:28;2.13;;;0.20;;
1004;SDS011;491;53.480;10.174;2022-09-13T17:18:56;1.37;;;0.27;;
1004;SDS011;491;53.480;10.174;2022-09-13T17:21:23;2.00;;;0.27;;
1004;SDS011;491;53.480;10.174;2022-09-13T17:23:49;1.30;;;0.20;;
1004;SDS011;491;53.480;10.174;2022-09-13T17:26:15;1.57;;;0.20;;
1004;SDS011;491;53.480;10.174;2022-09-13T17:28:41;5.10;;;0.20;;
1004;SDS011;491;53.480;10.174;2022-09-13T17:31:07;1.60;;;0.40;;
1004;SDS011;491;53.480;10.174;2022-09-13T17:33:32;3.53;;;0.20;;
1004;SDS011;491;53.480;10.174;2022-09-13T17:36:04;2.43;;;0.97;;
1004;SDS011;491;53.480;10.174;2022-09-13T17:38:32;1.40;;;0.20;;
1004;SDS011;491;53.480;10.174;2022-09-13T17:40:59;2.40;;;0.20;;
1004;SDS011;491;53.480;10.174;2022-09-13T17:43:26;2.47;;;0.30;;
1004;SDS011;491;53.480;10.174;2022-09-13T17:45:52;2.20;;;0.50;;
1004;SDS011;491;53.480;10.174;2022-09-13T17:48:17;1.27;;;0.30;;
1004;SDS011;491;53.480;10.174;2022-09-13T17:50:43;5.47;;;0.50;;
1004;SDS011;491;53.480;10.174;2022-09-13T17:53:09;2.20;;;0.20;;
1004;SDS011;491;53.480;10.174;2022-09-13T17:55:36;4.83;;;0.20;;
1004;SDS011;491;53.480;10.174;2022-09-13T17:58:04;2.60;;;0.20;;
1004;SDS011;491;53.480;10.174;2022-09-13T18:00:29;1.90;;;0.20;;
1004;SDS011;491;53.480;10.174;2022-09-13T18:02:55;2.33;;;0.60;;
1004;SDS011;491;53.480;10.174;2022-09-13T18:05:21;2.60;;;0.23;;
1004;SDS011;491;53.480;10.174;2022-09-13T18:07:49;3.40;;;0.57;;